Time;durP1;ratioP1;P1;durP2;ratioP2;P2;SDS_P1;SDS_P2;PMS_P1;PMS_P2;Temp;Humidity;BMP_temperature;BMP_pressure;BME280_temperature;BME280_humidity;BME280_pressure;Samples;Min_cycle;Max_cycle;Signal;HPM_P1;HPM_P2
2021/10/09 07:00:24;;;;;;;6.38;2.55;;;18.20;46.60;;;;;;5043428;28;20037;-64
2021/10/09 07:02:49;;;;;;;4.47;2.17;;;18.40;46.40;;;;;;5033385;28;20021;-63
2021/10/09 07:05:16;;;;;;;6.15;2.20;;;18.50;46.40;;;;;;5033600;28;20034;-63
2021/10/09 07:07:44;;;;;;;5.68;2.20;;;18.60;46.60;;;;;;5033288;28;20057;-63
2021/10/09 07:10:11;;;;;;;5.30;2.00;;;18.70;46.70;;;;;;5033368;28;20029;-64
2021/10/09 07:12:38;;;;;;;5.78;1.98;;;18.80;46.90;;;;;;5043348;28;20413;-64
2021/10/09 07:15:10;;;;;;;4.80;1.80;;;18.80;47.00;;;;;;5040856;28;20036;-63
2021/10/09 07:17:37;;;;;;;4.90;1.90;;;18.80;47.30;;;;;;5051399;28;20078;-64
2021/10/09 07:20:06;;;;;;;4.32;1.83;;;18.90;47.50;;;;;;5042928;28;20118;-63
2021/10/09 07:22:33;;;;;;;6.32;2.50;;;18.90;47.80;;;;;;5040658;28;20037;-63
2021/10/09 07:25:01;;;;;;;6.70;2.50;;;18.90;48.00;;;;;;5041649;28;20470;-62
2021/10/09 07:27:27;;;;;;;6.70;2.40;;;18.80;48.30;;;;;;5046193;28;20060;-62
2021/10/09 07:29:52;;;;;;;4.10;2.40;;;18.80;48.50;;;;;;5046764;28;20404;-62
2021/10/09 07:32:18;;;;;;;6.40;2.75;;;18.70;48.80;;;;;;5042017;28;20033;-62
2021/10/09 07:34:44;;;;;;;5.95;2.47;;;18.70;49.10;;;;;;5044849;28;20715;-61
2021/10/09 07:37:10;;;;;;;7.15;2.90;;;18.60;49.30;;;;;;5043882;28;20041;-61
2021/10/09 07:39:36;;;;;;;5.63;2.97;;;18.60;49.60;;;;;;5039174;28;20049;-61
2021/10/09 07:42:03;;;;;;;7.38;3.20;;;18.60;49.90;;;;;;5036141;28;20179;-61
2021/10/09 07:44:29;;;;;;;6.20;3.33;;;18.60;50.10;;;;;;5039971;28;20476;-61
2021/10/09 07:46:55;;;;;;;5.88;3.47;;;18.60;50.30;;;;;;5043540;28;20021;-60
2021/10/09 07:49:21;;;;;;;5.55;3.60;;;18.60;50.50;;;;;;5047023;28;20056;-61
2021/10/09 07:51:47;;;;;;;8.02;3.97;;;18.60;50.90;;;;;;5042238;28;20045;-61
2021/10/09 07:54:12;;;;;;;7.57;4.10;;;18.60;51.20;;;;;;5046398;28;20028;-61
2021/10/09 07:56:38;;;;;;;9.10;4.22;;;18.60;51.50;;;;;;5052050;28;20105;-61
2021/10/09 07:59:04;;;;;;;7.70;4.28;;;18.60;51.70;;;;;;5038460;28;20026;-61
2021/10/09 08:01:32;;;;;;;6.82;4.20;;;18.60;52.20;;;;;;5030771;28;20030;-61
2021/10/09 08:04:00;;;;;;;7.43;4.40;;;18.60;52.40;;;;;;5036210;28;20108;-60
2021/10/09 08:06:27;;;;;;;7.22;4.40;;;18.60;52.50;;;;;;5029263;28;20412;-60
2021/10/09 08:08:53;;;;;;;10.13;4.45;;;18.60;52.60;;;;;;5031531;28;20029;-61
2021/10/09 08:11:19;;;;;;;8.55;4.97;;;18.70;52.90;;;;;;5026201;28;20405;-60
2021/10/09 08:13:45;;;;;;;7.90;4.85;;;18.70;53.00;;;;;;5035342;28;20025;-61
2021/10/09 08:16:11;;;;;;;8.18;5.00;;;18.70;53.20;;;;;;5038135;28;20041;-61
2021/10/09 08:18:37;;;;;;;8.77;5.05;;;18.80;53.30;;;;;;5029364;28;20036;-61
2021/10/09 08:21:05;;;;;;;7.90;5.00;;;18.80;53.50;;;;;;5016379;28;20030;-61
2021/10/09 08:23:45;;;;;;;7.80;4.68;;;18.80;53.50;;;;;;5013817;28;20489;-61
2021/10/09 08:39:33;;;;;;;11.30;4.85;;;19.00;54.30;;;;;;5022022;28;20112;-61
2021/10/09 08:42:00;;;;;;;9.25;5.18;;;19.00;54.00;;;;;;5033213;28;20403;-61
2021/10/09 08:44:26;;;;;;;8.45;4.80;;;19.00;54.20;;;;;;5038076;28;20029;-62
2021/10/09 08:46:53;;;;;;;8.63;4.60;;;19.10;54.50;;;;;;5029071;28;20053;-61
2021/10/09 08:49:19;;;;;;;9.80;4.72;;;19.10;54.60;;;;;;5031870;28;20033;-61
2021/10/09 08:51:45;;;;;;;9.75;4.45;;;19.10;55.00;;;;;;5030530;28;20038;-61
2021/10/09 08:54:12;;;;;;;8.02;5.00;;;19.20;55.40;;;;;;5028480;28;20025;-61
2021/10/09 08:56:44;;;;;;;8.05;4.40;;;19.20;55.70;;;;;;5031972;28;20037;-61
2021/10/09 08:59:29;;;;;;;8.63;4.07;;;19.20;55.90;;;;;;5028772;28;20024;-61
2021/10/09 09:02:18;;;;;;;9.43;4.10;;;19.30;56.10;;;;;;5033261;28;20491;-61
2021/10/09 09:40:06;;;;;;;17.85;4.18;;;19.80;58.30;;;;;;5035049;28;20439;-61
2021/10/09 09:42:42;;;;;;;12.32;4.00;;;19.80;57.60;;;;;;5023773;28;20025;-62
2021/10/09 09:45:10;;;;;;;13.93;4.25;;;19.90;59.10;;;;;;5038221;28;20035;-61
2021/10/09 09:47:38;;;;;;;12.55;4.20;;;19.90;58.50;;;;;;5033664;28;20026;-62
2021/10/09 09:50:07;;;;;;;10.27;3.80;;;20.00;58.60;;;;;;5033568;28;20074;-74
2021/10/09 09:52:40;;;;;;;10.88;3.40;;;21.20;59.30;;;;;;5040762;28;20044;-62
2021/10/09 09:55:09;;;;;;;8.93;3.30;;;21.90;55.40;;;;;;5031566;28;20064;-64
2021/10/09 09:57:37;;;;;;;9.68;3.13;;;22.10;54.20;;;;;;5030486;28;20031;-64
2021/10/09 10:00:16;;;;;;;9.82;3.53;;;22.10;53.90;;;;;;5040148;28;20021;-67
2021/10/09 10:02:50;;;;;;;9.75;4.43;;;22.00;54.10;;;;;;5041054;28;20025;-63
2021/10/09 10:05:17;;;;;;;12.02;4.28;;;21.90;54.50;;;;;;5034006;28;20083;-65
2021/10/09 10:07:43;;;;;;;12.00;5.03;;;21.80;54.90;;;;;;5034301;28;20037;-63
2021/10/09 10:10:10;;;;;;;8.73;5.22;;;21.60;55.20;;;;;;5036271;28;20020;-65
2021/10/09 10:12:38;;;;;;;10.32;5.20;;;21.60;55.90;;;;;;5028180;28;20037;-66
2021/10/09 10:15:11;;;;;;;10.10;4.30;;;21.50;56.60;;;;;;5029118;28;20022;-67
2021/10/09 10:17:40;;;;;;;10.10;4.38;;;21.40;57.20;;;;;;5023987;28;20030;-67
2021/10/09 10:20:16;;;;;;;7.18;4.18;;;21.40;58.20;;;;;;5026677;28;20387;-65
2021/10/09 10:22:42;;;;;;;7.90;4.20;;;21.30;58.30;;;;;;5027595;28;20396;-65
2021/10/09 10:25:26;;;;;;;9.20;3.80;;;21.20;58.60;;;;;;5027433;28;20049;-66
2021/10/09 10:28:04;;;;;;;7.50;4.00;;;21.10;58.70;;;;;;5031915;28;20044;-67
2021/10/09 10:30:37;;;;;;;9.27;3.92;;;21.00;58.70;;;;;;5021520;28;20042;-65
2021/10/09 10:33:06;;;;;;;6.07;3.38;;;21.00;58.60;;;;;;5020915;28;20492;-66
2021/10/09 10:35:32;;;;;;;6.82;3.30;;;20.90;58.50;;;;;;5017572;28;20029;-66
2021/10/09 10:38:25;;;;;;;6.22;3.20;;;20.90;58.60;;;;;;5021882;28;20434;-62
2021/10/09 10:40:55;;;;;;;7.68;3.10;;;20.90;58.60;;;;;;5026734;28;20034;-63
2021/10/09 10:46:25;;;;;;;6.32;2.42;;;20.90;58.60;;;;;;5028312;28;20116;-63
2021/10/09 10:49:03;;;;;;;8.65;2.97;;;20.90;58.70;;;;;;5023327;28;20025;-64
2021/10/09 10:54:20;;;;;;;9.13;2.50;;;20.90;59.30;;;;;;5027077;28;20026;-65
2021/10/09 10:56:57;;;;;;;5.60;2.40;;;20.90;59.30;;;;;;5030217;28;20037;-65
2021/10/09 10:59:49;;;;;;;9.48;2.80;;;21.00;59.40;;;;;;5023135;28;20028;-65
2021/10/09 11:02:21;;;;;;;5.25;2.58;;;21.00;59.10;;;;;;5038469;28;20025;-66
2021/10/09 11:05:00;;;;;;;6.85;2.70;;;21.00;58.90;;;;;;5031916;28;20087;-68
2021/10/09 11:07:29;;;;;;;5.30;2.40;;;21.10;58.70;;;;;;5024099;28;20063;-65
2021/10/09 11:10:22;;;;;;;6.60;2.30;;;21.10;58.60;;;;;;5029468;28;20933;-71
2021/10/09 11:12:51;;;;;;;7.15;2.53;;;21.10;58.50;;;;;;5030273;28;20049;-78
2021/10/09 11:21:53;;;;;;;6.15;2.53;;;21.70;65.80;;;;;;5045285;28;20447;-67
2021/10/09 11:24:19;;;;;;;8.77;2.45;;;22.20;62.30;;;;;;5058646;28;20064;-75
2021/10/09 11:26:52;;;;;;;8.55;2.50;;;22.30;60.70;;;;;;5057581;28;20101;-80
2021/10/09 11:29:18;;;;;;;7.22;2.30;;;22.40;59.20;;;;;;5043576;28;20025;-83
2021/10/09 11:31:44;;;;;;;6.68;2.20;;;22.40;58.30;;;;;;5044936;28;20052;-72
2021/10/09 11:34:10;;;;;;;8.07;2.30;;;22.40;57.80;;;;;;5044936;28;20108;-77
2021/10/09 11:36:39;;;;;;;4.15;2.60;;;22.30;57.50;;;;;;5046128;28;20039;-72
2021/10/09 11:39:15;;;;;;;8.60;2.67;;;22.30;57.20;;;;;;5041504;28;20032;-74
2021/10/09 11:41:43;;;;;;;7.95;2.38;;;22.20;56.90;;;;;;5040014;28;20044;-74
2021/10/09 11:44:26;;;;;;;5.57;2.35;;;22.20;56.80;;;;;;5051783;28;20024;-73
2021/10/09 11:55:22;;;;;;;8.32;3.28;;;22.10;56.40;;;;;;5040965;28;20094;-66
2021/10/09 11:57:49;;;;;;;8.98;3.42;;;22.00;56.30;;;;;;5045560;28;20496;-65
2021/10/09 12:00:27;;;;;;;15.75;3.40;;;22.10;56.40;;;;;;5047803;28;20037;-69
2021/10/09 12:03:00;;;;;;;5.75;3.10;;;22.00;56.20;;;;;;5043837;28;20457;-68
2021/10/09 12:05:36;;;;;;;9.43;3.33;;;22.00;56.30;;;;;;5039752;28;20092;-68
2021/10/09 12:08:15;;;;;;;7.28;3.10;;;22.00;56.30;;;;;;5034733;28;20025;-68
2021/10/09 12:11:18;;;;;;;5.22;2.60;;;21.90;56.10;;;;;;5032457;28;20293;-68
2021/10/09 12:13:58;;;;;;;7.13;2.90;;;21.90;56.10;;;;;;5032532;28;20018;-67
2021/10/09 12:16:35;;;;;;;7.78;3.10;;;21.90;56.10;;;;;;5032355;28;20037;-68
2021/10/09 12:19:04;;;;;;;5.57;2.90;;;21.90;56.10;;;;;;5031004;28;20029;-67
2021/10/09 12:21:41;;;;;;;5.53;2.80;;;21.80;56.10;;;;;;5043174;28;20582;-67
2021/10/09 12:24:17;;;;;;;7.70;3.17;;;21.80;56.10;;;;;;5042370;28;20055;-67
2021/10/09 12:27:15;;;;;;;4.43;2.50;;;21.80;56.00;;;;;;5032649;28;20060;-67
2021/10/09 12:30:00;;;;;;;9.85;2.90;;;21.70;56.00;;;;;;5045401;28;20056;-67
2021/10/09 12:32:27;;;;;;;5.82;2.70;;;21.70;56.00;;;;;;5030719;28;20500;-69
2021/10/09 12:35:31;;;;;;;6.75;2.58;;;21.70;56.00;;;;;;5023383;28;20041;-69
2021/10/09 12:38:10;;;;;;;7.38;2.70;;;21.70;56.00;;;;;;5014771;28;20575;-68
2021/10/09 12:40:43;;;;;;;4.80;2.60;;;21.60;56.00;;;;;;5022895;28;20033;-69
2021/10/09 12:43:12;;;;;;;5.85;2.63;;;21.60;56.00;;;;;;5024583;28;20113;-68
2021/10/09 12:45:40;;;;;;;6.40;2.50;;;21.60;56.00;;;;;;5014130;28;20501;-68
2021/10/09 12:48:10;;;;;;;5.38;2.50;;;21.60;56.00;;;;;;5015715;28;20500;-69
2021/10/09 12:50:41;;;;;;;4.38;2.65;;;21.60;56.00;;;;;;5029898;28;20017;-68
2021/10/09 12:53:07;;;;;;;5.50;2.60;;;21.60;56.00;;;;;;5021139;28;20037;-69
2021/10/09 12:55:34;;;;;;;5.22;2.60;;;21.60;56.00;;;;;;5013969;28;20026;-68
2021/10/09 12:58:08;;;;;;;5.00;2.60;;;21.50;55.90;;;;;;5021049;28;20029;-69
2021/10/09 13:00:35;;;;;;;4.07;2.40;;;21.50;55.90;;;;;;5020920;28;20042;-67
2021/10/09 13:03:01;;;;;;;9.27;3.22;;;21.50;55.90;;;;;;5033906;28;20034;-68
2021/10/09 13:05:31;;;;;;;6.95;3.25;;;21.50;56.00;;;;;;5028372;28;20030;-68
2021/10/09 13:07:59;;;;;;;5.90;3.55;;;21.50;56.20;;;;;;5028052;28;20033;-68
2021/10/09 13:10:27;;;;;;;6.43;3.25;;;21.50;56.20;;;;;;5028605;28;20079;-70
2021/10/09 13:12:55;;;;;;;5.00;3.20;;;21.50;56.30;;;;;;5029247;28;20096;-68
2021/10/09 13:15:21;;;;;;;6.78;3.05;;;21.60;56.30;;;;;;5012169;28;20489;-68
2021/10/09 13:17:49;;;;;;;4.80;3.10;;;21.60;56.40;;;;;;5018672;28;20409;-69
2021/10/09 13:20:16;;;;;;;6.38;2.90;;;21.60;56.30;;;;;;5029982;28;20046;-70
2021/10/09 13:22:42;;;;;;;7.53;2.67;;;21.60;56.30;;;;;;5024363;28;20026;-70
2021/10/09 13:25:09;;;;;;;6.05;2.70;;;21.70;56.30;;;;;;5025218;28;20045;-69
2021/10/09 13:27:35;;;;;;;6.18;2.70;;;21.60;56.20;;;;;;5028700;28;20022;-71
2021/10/09 13:30:02;;;;;;;5.65;2.83;;;21.70;56.20;;;;;;5031387;28;20067;-69
2021/10/09 13:32:28;;;;;;;6.88;2.65;;;21.70;56.20;;;;;;5017076;28;20072;-67
2021/10/09 13:34:54;;;;;;;6.97;2.72;;;21.70;56.20;;;;;;5017797;28;20077;-67
2021/10/09 13:37:21;;;;;;;6.75;2.67;;;21.70;56.10;;;;;;5020532;28;20021;-69
2021/10/09 13:41:34;;;;;;;5.13;2.70;;;22.90;55.40;;;;;;5046915;28;20507;-70
2021/10/09 13:43:59;;;;;;;;;;;26.50;51.70;;;;;;5046701;28;20515;-70
2021/10/09 13:46:28;;;;;;;7.65;3.55;;;27.40;46.80;;;;;;5049486;28;19909;-71
2021/10/09 13:48:56;;;;;;;5.97;3.10;;;27.80;44.90;;;;;;5043849;28;20033;-71
2021/10/09 13:51:22;;;;;;;5.07;2.90;;;28.90;41.50;;;;;;5045042;28;20060;-72
2021/10/09 13:53:48;;;;;;;4.88;2.38;;;29.80;39.00;;;;;;5047298;28;20056;-71
2021/10/09 13:56:14;;;;;;;5.95;2.90;;;30.70;37.90;;;;;;5047385;28;20025;-72
2021/10/09 13:58:40;;;;;;;4.65;2.90;;;31.60;35.50;;;;;;5043871;28;20044;-72
2021/10/09 14:01:06;;;;;;;4.97;2.63;;;32.10;33.20;;;;;;5046850;28;20454;-69
2021/10/09 14:03:35;;;;;;;5.95;2.72;;;32.50;32.50;;;;;;5028475;28;20013;-72
2021/10/09 14:06:01;;;;;;;6.65;3.55;;;32.90;32.00;;;;;;5045941;28;20033;-72
2021/10/09 14:08:28;;;;;;;5.65;3.08;;;33.60;29.60;;;;;;5056521;28;20506;-72
2021/10/09 14:10:55;;;;;;;5.53;3.00;;;34.40;28.70;;;;;;5042148;28;20031;-72
2021/10/09 14:13:22;;;;;;;5.72;2.60;;;36.30;27.00;;;;;;5045119;28;20527;-72
2021/10/09 14:15:48;;;;;;;5.50;2.70;;;38.50;25.60;;;;;;5043019;28;20021;-73
2021/10/09 14:18:16;;;;;;;6.03;2.72;;;39.80;24.60;;;;;;5044983;28;20135;-72
2021/10/09 14:20:54;;;;;;;8.10;3.13;;;40.70;23.50;;;;;;5047436;28;20389;-73
2021/10/09 14:23:21;;;;;;;7.28;3.33;;;41.10;22.40;;;;;;5043274;28;20025;-72
2021/10/09 14:25:47;;;;;;;8.93;2.78;;;41.20;21.50;;;;;;5043093;28;20416;-72
2021/10/09 14:28:14;;;;;;;4.93;2.50;;;41.00;21.60;;;;;;5043353;28;20021;-71
2021/10/09 14:30:40;;;;;;;7.55;2.78;;;41.00;22.10;;;;;;5043282;28;20133;-72
2021/10/09 14:33:07;;;;;;;4.90;2.60;;;41.30;21.90;;;;;;5046466;28;20427;-72
2021/10/09 14:35:35;;;;;;;4.82;2.83;;;41.30;21.50;;;;;;5047172;28;20061;-72
2021/10/09 14:38:02;;;;;;;5.28;2.92;;;41.30;21.40;;;;;;5032763;28;20032;-71
2021/10/09 14:40:28;;;;;;;7.63;2.80;;;41.30;21.00;;;;;;5042474;28;20037;-71
2021/10/09 14:42:54;;;;;;;6.47;2.85;;;41.30;21.30;;;;;;5044036;28;20163;-71
2021/10/09 14:45:20;;;;;;;6.82;2.80;;;41.20;21.10;;;;;;5040901;28;20547;-71
2021/10/09 14:48:33;;;;;;;5.80;2.60;;;41.10;21.20;;;;;;5035479;28;20026;-71
2021/10/09 15:20:15;;;;;;;6.90;2.83;;;38.80;22.60;;;;;;5024370;28;20025;-69
2021/10/09 15:22:41;;;;;;;8.70;5.97;;;38.30;22.80;;;;;;5026508;28;20043;-70
2021/10/09 15:25:07;;;;;;;6.45;3.00;;;38.00;23.20;;;;;;5028092;28;20129;-66
2021/10/09 15:27:33;;;;;;;8.15;2.95;;;37.40;23.90;;;;;;5025227;28;20447;-66
2021/10/09 15:29:59;;;;;;;6.65;2.80;;;36.80;24.70;;;;;;5031175;28;20056;-66
2021/10/09 15:32:25;;;;;;;6.03;2.80;;;36.10;25.40;;;;;;5029109;28;20022;-67
2021/10/09 15:34:51;;;;;;;7.30;3.05;;;35.10;26.50;;;;;;5028620;28;20038;-66
2021/10/09 15:37:17;;;;;;;8.15;3.30;;;33.70;27.70;;;;;;5028804;28;20020;-66
2021/10/09 15:39:43;;;;;;;5.05;3.00;;;32.70;28.70;;;;;;5033636;28;20120;-67
2021/10/09 15:42:09;;;;;;;5.70;3.33;;;31.90;29.80;;;;;;5018447;28;20030;-66
2021/10/09 15:44:35;;;;;;;5.80;3.40;;;31.20;30.50;;;;;;5029405;28;20100;-66
2021/10/09 15:47:02;;;;;;;6.65;3.47;;;30.60;31.40;;;;;;5027556;28;20025;-66
2021/10/09 15:49:28;;;;;;;6.03;3.45;;;30.00;32.20;;;;;;5021495;28;20104;-66
2021/10/09 15:51:55;;;;;;;9.30;3.42;;;29.50;33.10;;;;;;5038235;28;20188;-66
2021/10/09 15:54:21;;;;;;;9.98;3.17;;;29.10;34.00;;;;;;5028100;28;20445;-66
2021/10/09 15:56:46;;;;;;;6.55;3.28;;;28.70;34.60;;;;;;5031745;28;20566;-66
2021/10/09 15:59:12;;;;;;;5.40;3.10;;;28.40;34.90;;;;;;5027070;28;20024;-66
2021/10/09 16:01:38;;;;;;;6.53;3.10;;;28.10;35.50;;;;;;5027526;28;20508;-66
2021/10/09 16:04:04;;;;;;;7.43;3.05;;;27.90;36.30;;;;;;5025287;28;20481;-66
2021/10/09 16:06:30;;;;;;;5.43;3.10;;;27.70;36.80;;;;;;5031252;28;20064;-66
2021/10/09 16:08:56;;;;;;;6.57;3.00;;;27.40;37.40;;;;;;5030532;28;20028;-66
2021/10/09 16:11:23;;;;;;;5.43;2.72;;;27.30;37.80;;;;;;5032434;28;20511;-66
2021/10/09 16:13:50;;;;;;;5.10;2.90;;;27.10;38.10;;;;;;5032751;28;20037;-66
2021/10/09 16:16:16;;;;;;;6.63;3.10;;;26.90;38.60;;;;;;5031462;28;20041;-67
2021/10/09 16:18:42;;;;;;;5.78;3.33;;;26.70;39.10;;;;;;5013349;28;20022;-67
2021/10/09 16:21:08;;;;;;;5.93;3.05;;;26.60;39.60;;;;;;5031051;28;20040;-66
2021/10/09 16:23:34;;;;;;;7.90;3.10;;;26.40;39.90;;;;;;5030547;28;20079;-66
2021/10/09 16:26:04;;;;;;;6.68;3.38;;;26.20;40.40;;;;;;5028405;28;20033;-66
2021/10/09 16:28:33;;;;;;;8.07;3.50;;;26.00;40.80;;;;;;5030271;28;20025;-67
2021/10/09 16:31:00;;;;;;;6.45;3.28;;;25.80;41.20;;;;;;5027306;28;20041;-67
2021/10/09 16:33:25;;;;;;;5.10;2.88;;;25.70;41.70;;;;;;5038458;28;20028;-67
2021/10/09 16:35:52;;;;;;;6.90;3.10;;;25.60;42.00;;;;;;5031317;28;20038;-67
2021/10/09 16:38:17;;;;;;;6.03;3.60;;;25.40;42.20;;;;;;5028932;28;20029;-67
2021/10/09 16:40:44;;;;;;;10.02;3.83;;;25.40;42.50;;;;;;5024908;28;20420;-68
2021/10/09 16:43:10;;;;;;;8.15;4.10;;;25.30;42.90;;;;;;5026404;28;20037;-64
2021/10/09 16:45:36;;;;;;;6.85;4.32;;;25.10;43.20;;;;;;5025480;28;20045;-65
2021/10/09 16:48:02;;;;;;;7.15;4.68;;;25.00;43.60;;;;;;5031022;28;20087;-64
2021/10/09 16:50:28;;;;;;;7.85;4.43;;;24.90;44.00;;;;;;5026670;28;20451;-64
2021/10/09 16:52:58;;;;;;;7.97;4.80;;;24.70;44.50;;;;;;5029968;28;20025;-65
2021/10/09 16:55:25;;;;;;;7.47;4.50;;;24.60;44.80;;;;;;5028051;28;20404;-65
2021/10/09 16:57:51;;;;;;;7.07;4.78;;;24.40;45.20;;;;;;5026504;28;20026;-65
2021/10/09 17:00:17;;;;;;;7.32;4.72;;;24.30;45.40;;;;;;5031448;28;20025;-64
2021/10/09 17:02:46;;;;;;;9.35;4.53;;;24.20;46.60;;;;;;5029251;28;20074;-65
2021/10/09 17:05:12;;;;;;;7.90;4.90;;;24.00;46.10;;;;;;5023217;28;20029;-65
2021/10/09 17:07:39;;;;;;;8.40;4.60;;;23.90;46.50;;;;;;5025434;28;20022;-65
2021/10/09 17:10:06;;;;;;;7.97;4.90;;;23.80;46.80;;;;;;5026792;28;20042;-65
2021/10/09 17:12:32;;;;;;;7.57;4.72;;;23.70;47.20;;;;;;5025440;28;20025;-66
2021/10/09 17:14:58;;;;;;;7.20;5.05;;;23.60;47.40;;;;;;5028439;28;20022;-65
2021/10/09 17:17:24;;;;;;;10.60;5.30;;;23.50;47.70;;;;;;5023996;28;20055;-66
2021/10/09 17:19:50;;;;;;;8.45;4.68;;;23.40;48.10;;;;;;5023748;28;20026;-65
2021/10/09 17:22:16;;;;;;;9.52;5.05;;;23.30;48.20;;;;;;5027795;28;20054;-66
2021/10/09 17:24:42;;;;;;;7.60;5.20;;;23.10;48.40;;;;;;5029956;28;20040;-66
2021/10/09 17:27:08;;;;;;;9.57;5.82;;;23.00;48.80;;;;;;5031111;28;20021;-65
2021/10/09 17:29:35;;;;;;;8.82;5.75;;;22.90;49.20;;;;;;5029115;28;20108;-65
2021/10/09 17:32:01;;;;;;;11.85;6.63;;;22.80;50.40;;;;;;5020257;28;20021;-66
2021/10/09 17:34:30;;;;;;;9.25;6.45;;;22.70;49.80;;;;;;5020317;28;20370;-66
2021/10/09 17:36:56;;;;;;;10.98;6.43;;;22.60;50.00;;;;;;5028334;28;20056;-65
2021/10/09 17:39:22;;;;;;;10.40;6.75;;;22.40;50.30;;;;;;5027950;28;20077;-65
2021/10/09 17:41:48;;;;;;;10.88;7.03;;;22.40;50.70;;;;;;5030815;28;20452;-66
2021/10/09 17:44:14;;;;;;;13.07;7.28;;;22.20;50.90;;;;;;5024005;28;20029;-66
2021/10/09 17:46:41;;;;;;;11.18;7.50;;;22.10;51.10;;;;;;5024963;28;20026;-66
2021/10/09 17:49:06;;;;;;;11.50;7.80;;;22.10;51.40;;;;;;5023835;28;20449;-66
2021/10/09 17:51:35;;;;;;;12.20;7.65;;;21.90;51.60;;;;;;5024734;28;20543;-66
2021/10/09 17:54:01;;;;;;;12.43;8.00;;;21.80;51.80;;;;;;5024365;28;20021;-66
2021/10/09 17:56:28;;;;;;;14.35;7.93;;;21.80;52.00;;;;;;5022118;28;20519;-65
2021/10/09 17:58:55;;;;;;;11.00;7.80;;;21.70;52.30;;;;;;5027288;28;20022;-66
2021/10/09 18:01:21;;;;;;;12.20;8.18;;;21.50;52.50;;;;;;5029732;28;20033;-65
2021/10/09 18:03:47;;;;;;;15.52;8.80;;;21.50;52.80;;;;;;5026131;28;20034;-67
2021/10/09 18:06:13;;;;;;;12.02;8.23;;;21.40;52.90;;;;;;5028379;28;20518;-68
2021/10/09 18:08:39;;;;;;;11.98;8.85;;;21.30;53.00;;;;;;5034627;28;20025;-68
2021/10/09 18:11:06;;;;;;;14.48;8.68;;;21.20;53.10;;;;;;5035533;28;20043;-68
2021/10/09 18:13:34;;;;;;;12.48;8.90;;;21.10;53.30;;;;;;5035958;28;20075;-68
2021/10/09 18:16:01;;;;;;;14.75;9.75;;;21.00;53.60;;;;;;5032752;28;20512;-68
2021/10/09 18:18:27;;;;;;;13.88;9.52;;;20.90;54.10;;;;;;5029347;28;20116;-69
2021/10/09 18:20:53;;;;;;;15.63;10.27;;;20.80;54.20;;;;;;5029002;28;20029;-69
2021/10/09 18:23:19;;;;;;;15.18;10.18;;;20.70;54.50;;;;;;5031057;28;20465;-66
2021/10/09 18:25:45;;;;;;;17.55;10.52;;;20.60;54.80;;;;;;5028959;28;20026;-66
2021/10/09 18:28:11;;;;;;;14.88;11.02;;;20.50;54.90;;;;;;5032544;28;20033;-67
2021/10/09 18:30:38;;;;;;;17.63;11.80;;;20.50;56.20;;;;;;5035172;28;20123;-66
2021/10/09 18:33:05;;;;;;;17.67;11.88;;;20.40;55.40;;;;;;5033279;28;20032;-66
2021/10/09 18:35:32;;;;;;;18.73;12.32;;;20.40;55.80;;;;;;5032596;28;20112;-66
2021/10/09 18:37:58;;;;;;;18.23;12.77;;;20.20;56.10;;;;;;5031527;28;20396;-66
2021/10/09 18:40:24;;;;;;;16.85;12.00;;;20.20;56.50;;;;;;5036540;28;20059;-66
2021/10/09 18:42:51;;;;;;;21.17;14.10;;;20.10;56.70;;;;;;5031212;28;20023;-67
2021/10/09 18:45:17;;;;;;;18.75;13.20;;;20.10;57.00;;;;;;5019501;28;20026;-67
2021/10/09 18:47:43;;;;;;;19.40;13.30;;;20.00;57.10;;;;;;5033227;28;20033;-66
2021/10/09 18:50:11;;;;;;;18.63;13.13;;;20.00;57.20;;;;;;5023743;28;20454;-66
2021/10/09 18:52:37;;;;;;;22.88;13.25;;;20.00;57.40;;;;;;5025155;28;20022;-66
2021/10/09 18:55:04;;;;;;;21.80;13.40;;;19.90;57.40;;;;;;5030828;28;20025;-66
2021/10/09 18:57:30;;;;;;;19.30;13.13;;;19.90;57.40;;;;;;5029247;28;20021;-66
2021/10/09 18:59:56;;;;;;;18.23;12.18;;;19.80;57.30;;;;;;5035798;28;20476;-66
2021/10/09 19:02:23;;;;;;;19.08;12.88;;;19.70;57.30;;;;;;5030302;28;20056;-66
2021/10/09 19:04:49;;;;;;;22.42;14.55;;;19.70;57.30;;;;;;5031748;28;20025;-66
2021/10/09 19:07:15;;;;;;;19.40;12.15;;;19.60;57.20;;;;;;5032265;28;20079;-66
2021/10/09 19:09:40;;;;;;;23.30;12.43;;;19.50;57.30;;;;;;5031122;28;20030;-66
2021/10/09 19:12:07;;;;;;;24.15;12.02;;;19.50;57.30;;;;;;5031989;28;20543;-66
2021/10/09 19:14:33;;;;;;;21.40;12.05;;;19.40;57.10;;;;;;5022869;28;20033;-66
2021/10/09 19:16:59;;;;;;;17.63;11.77;;;19.30;57.00;;;;;;5031828;28;20456;-66
2021/10/09 19:19:28;;;;;;;18.08;11.20;;;19.20;56.80;;;;;;5028466;28;20482;-66
2021/10/09 19:21:54;;;;;;;17.40;11.43;;;19.10;56.70;;;;;;5028735;28;20091;-66
2021/10/09 19:24:26;;;;;;;18.52;11.88;;;19.00;56.50;;;;;;5031501;28;20116;-66
2021/10/09 19:26:55;;;;;;;16.67;12.10;;;19.00;56.70;;;;;;5035791;28;20025;-65
2021/10/09 19:29:21;;;;;;;19.30;12.15;;;18.90;56.70;;;;;;5031780;28;20040;-66
2021/10/09 19:31:50;;;;;;;18.15;11.80;;;18.80;56.70;;;;;;5027399;28;20489;-66
2021/10/09 19:36:52;;;;;;;17.60;12.23;;;18.60;56.80;;;;;;5031426;28;20036;-66
2021/10/09 19:39:17;;;;;;;17.15;11.43;;;18.50;56.90;;;;;;5030153;28;20088;-67
2021/10/09 19:41:43;;;;;;;17.52;12.45;;;18.40;57.00;;;;;;5032191;28;20485;-67
2021/10/09 19:44:09;;;;;;;18.23;11.63;;;18.40;57.20;;;;;;5026827;28;20026;-67
2021/10/09 19:46:36;;;;;;;17.17;11.43;;;18.30;57.20;;;;;;5030585;28;20021;-66
2021/10/09 19:49:03;;;;;;;16.83;12.45;;;18.20;57.20;;;;;;5031614;28;20037;-66
2021/10/09 19:54:29;;;;;;;18.15;13.05;;;18.10;57.50;;;;;;5028561;28;20080;-67
2021/10/09 19:56:56;;;;;;;17.30;11.75;;;18.10;57.40;;;;;;5031454;28;20038;-67
2021/10/09 19:59:22;;;;;;;18.00;11.52;;;18.00;57.30;;;;;;5027217;28;20033;-67
2021/10/09 20:01:48;;;;;;;18.48;12.70;;;17.90;57.50;;;;;;5033799;28;20049;-67
2021/10/09 20:04:14;;;;;;;16.77;10.93;;;17.90;57.60;;;;;;5035616;28;20110;-67
2021/10/09 20:06:40;;;;;;;14.82;11.02;;;17.80;57.30;;;;;;5038814;28;20404;-67
2021/10/09 20:09:11;;;;;;;17.33;11.98;;;17.70;57.20;;;;;;5030636;28;20025;-67
2021/10/09 20:12:03;;;;;;;20.20;12.25;;;17.60;57.10;;;;;;5031353;28;20052;-67
2021/10/09 20:14:28;;;;;;;17.40;12.18;;;17.50;57.10;;;;;;5030178;28;20030;-67
2021/10/09 20:16:54;;;;;;;18.50;12.02;;;17.50;57.20;;;;;;5034421;28;20025;-67
2021/10/09 20:19:21;;;;;;;17.63;11.55;;;17.40;57.20;;;;;;5029304;28;20034;-67
2021/10/09 20:21:55;;;;;;;16.55;11.35;;;17.40;57.30;;;;;;5031592;28;20026;-67
2021/10/09 20:24:21;;;;;;;17.58;11.93;;;17.30;57.20;;;;;;5030819;28;20099;-67
2021/10/09 20:26:47;;;;;;;18.85;11.90;;;17.20;57.30;;;;;;5036037;28;20512;-67
2021/10/09 20:29:13;;;;;;;18.88;12.65;;;17.20;57.60;;;;;;5033308;28;20017;-67
2021/10/09 20:31:39;;;;;;;19.02;12.20;;;17.10;57.90;;;;;;5030012;28;20041;-67
2021/10/09 20:34:05;;;;;;;17.73;11.68;;;17.10;58.40;;;;;;5030578;28;20105;-67
2021/10/09 20:36:30;;;;;;;17.58;11.48;;;17.10;58.60;;;;;;5029907;28;20385;-67
2021/10/09 20:38:56;;;;;;;16.80;11.50;;;17.00;58.60;;;;;;5030703;28;20108;-67
2021/10/09 20:41:22;;;;;;;17.08;11.73;;;17.00;58.60;;;;;;5027592;28;20047;-67
2021/10/09 20:43:48;;;;;;;15.27;11.13;;;17.00;58.70;;;;;;5032323;28;20099;-66
2021/10/09 20:46:14;;;;;;;15.70;12.13;;;16.90;58.90;;;;;;5027757;28;20436;-67
2021/10/09 20:48:39;;;;;;;17.42;11.23;;;16.80;58.80;;;;;;5029445;28;20064;-66
2021/10/09 20:51:05;;;;;;;17.85;11.88;;;16.80;59.20;;;;;;5029934;28;20096;-66
2021/10/09 20:53:31;;;;;;;14.60;10.45;;;16.70;58.30;;;;;;5028823;28;20140;-66
2021/10/09 20:56:01;;;;;;;16.00;11.20;;;16.70;58.20;;;;;;5026904;28;20505;-66
2021/10/09 20:58:28;;;;;;;15.70;11.48;;;16.60;58.20;;;;;;5029284;28;20049;-66
2021/10/09 21:00:53;;;;;;;17.25;11.80;;;16.50;58.10;;;;;;5028769;28;20029;-66
2021/10/09 21:03:19;;;;;;;18.17;12.00;;;16.40;57.90;;;;;;5029789;28;20030;-66
2021/10/09 21:05:45;;;;;;;20.33;12.45;;;16.40;58.20;;;;;;5028603;28;20056;-66
2021/10/09 21:08:11;;;;;;;16.90;12.02;;;16.30;58.50;;;;;;5028727;28;20056;-66
2021/10/09 21:24:18;;;;;;;17.67;12.88;;;16.00;59.70;;;;;;5026297;28;20075;-66
2021/10/09 21:26:44;;;;;;;20.25;14.00;;;16.00;59.60;;;;;;5029228;28;20101;-66
2021/10/09 21:29:10;;;;;;;16.35;12.68;;;15.90;59.30;;;;;;5031140;28;20132;-66
2021/10/09 21:31:37;;;;;;;14.65;10.90;;;15.80;59.40;;;;;;5028839;28;20037;-66
2021/10/09 21:34:03;;;;;;;14.23;10.38;;;15.70;60.30;;;;;;5029637;28;20052;-66
2021/10/09 21:36:29;;;;;;;12.52;9.25;;;15.70;59.50;;;;;;5025976;28;20505;-66
2021/10/09 21:38:55;;;;;;;12.27;9.23;;;15.60;59.50;;;;;;5031507;28;20042;-66
2021/10/09 21:41:20;;;;;;;13.55;9.65;;;15.50;59.40;;;;;;5031103;28;20057;-66
2021/10/09 21:43:46;;;;;;;12.98;9.63;;;15.50;59.40;;;;;;5030574;28;20501;-66
2021/10/09 21:46:12;;;;;;;14.93;10.70;;;15.40;59.50;;;;;;5028324;28;20025;-66